sensor_id;sensor_type;location;lat;lon;timestamp;P1;durP1;ratioP1;P2;durP2;ratioP2
75139;SDS011;63714;55.812;37.658;2023-09-19T00:00:36;10.07;;;6.50;;
75139;SDS011;63714;55.812;37.658;2023-09-19T00:03:02;11.63;;;6.68;;
75139;SDS011;63714;55.812;37.658;2023-09-19T00:05:29;11.88;;;7.82;;
75139;SDS011;63714;55.812;37.658;2023-09-19T00:08:00;9.98;;;7.03;;
75139;SDS011;63714;55.812;37.658;2023-09-19T00:10:26;12.95;;;9.43;;
75139;SDS011;63714;55.812;37.658;2023-09-19T00:12:56;16.98;;;10.82;;
75139;SDS011;63714;55.812;37.658;2023-09-19T00:15:27;13.77;;;10.13;;
75139;SDS011;63714;55.812;37.658;2023-09-19T00:17:55;12.15;;;9.27;;
75139;SDS011;63714;55.812;37.658;2023-09-19T00:20:21;12.27;;;8.20;;
75139;SDS011;63714;55.812;37.658;2023-09-19T00:22:50;13.18;;;7.70;;
75139;SDS011;63714;55.812;37.658;2023-09-19T00:25:19;16.45;;;8.10;;
75139;SDS011;63714;55.812;37.658;2023-09-19T00:27:45;11.75;;;7.70;;
75139;SDS011;63714;55.812;37.658;2023-09-19T00:30:17;10.65;;;7.15;;
75139;SDS011;63714;55.812;37.658;2023-09-19T00:32:47;11.90;;;7.22;;
75139;SDS011;63714;55.812;37.658;2023-09-19T00:35:13;11.85;;;6.70;;
75139;SDS011;63714;55.812;37.658;2023-09-19T00:37:42;12.05;;;6.50;;
75139;SDS011;63714;55.812;37.658;2023-09-19T00:40:08;10.10;;;7.05;;
75139;SDS011;63714;55.812;37.658;2023-09-19T00:42:40;11.40;;;6.55;;
75139;SDS011;63714;55.812;37.658;2023-09-19T00:45:08;11.85;;;7.38;;
75139;SDS011;63714;55.812;37.658;2023-09-19T00:47:55;11.82;;;6.68;;
75139;SDS011;63714;55.812;37.658;2023-09-19T00:50:22;11.05;;;7.00;;
75139;SDS011;63714;55.812;37.658;2023-09-19T00:52:52;11.23;;;7.05;;
75139;SDS011;63714;55.812;37.658;2023-09-19T00:55:22;11.73;;;7.20;;
75139;SDS011;63714;55.812;37.658;2023-09-19T00:57:49;11.13;;;7.03;;
75139;SDS011;63714;55.812;37.658;2023-09-19T01:00:15;10.85;;;7.00;;
75139;SDS011;63714;55.812;37.658;2023-09-19T01:02:44;10.25;;;7.10;;
75139;SDS011;63714;55.812;37.658;2023-09-19T01:05:11;9.73;;;6.70;;
75139;SDS011;63714;55.812;37.658;2023-09-19T01:07:37;11.63;;;7.40;;
75139;SDS011;63714;55.812;37.658;2023-09-19T01:10:06;11.13;;;8.10;;
75139;SDS011;63714;55.812;37.658;2023-09-19T01:12:43;10.05;;;7.18;;
75139;SDS011;63714;55.812;37.658;2023-09-19T01:28:54;12.98;;;8.27;;
75139;SDS011;63714;55.812;37.658;2023-09-19T01:31:37;13.55;;;8.13;;
75139;SDS011;63714;55.812;37.658;2023-09-19T01:34:03;11.27;;;8.13;;
75139;SDS011;63714;55.812;37.658;2023-09-19T01:36:33;11.57;;;7.88;;
75139;SDS011;63714;55.812;37.658;2023-09-19T01:39:02;12.80;;;8.43;;
75139;SDS011;63714;55.812;37.658;2023-09-19T01:44:08;13.57;;;8.82;;
75139;SDS011;63714;55.812;37.658;2023-09-19T01:46:40;13.52;;;8.27;;
75139;SDS011;63714;55.812;37.658;2023-09-19T01:49:18;11.77;;;8.23;;
75139;SDS011;63714;55.812;37.658;2023-09-19T01:52:11;9.85;;;7.65;;
75139;SDS011;63714;55.812;37.658;2023-09-19T01:54:46;11.70;;;7.40;;
75139;SDS011;63714;55.812;37.658;2023-09-19T02:00:04;15.45;;;8.10;;
75139;SDS011;63714;55.812;37.658;2023-09-19T02:02:36;11.32;;;7.47;;
75139;SDS011;63714;55.812;37.658;2023-09-19T02:05:03;11.98;;;7.85;;
75139;SDS011;63714;55.812;37.658;2023-09-19T02:07:30;10.95;;;7.80;;
75139;SDS011;63714;55.812;37.658;2023-09-19T02:09:59;12.50;;;8.05;;
75139;SDS011;63714;55.812;37.658;2023-09-19T02:12:31;11.55;;;7.70;;
75139;SDS011;63714;55.812;37.658;2023-09-19T02:15:00;10.88;;;7.55;;
75139;SDS011;63714;55.812;37.658;2023-09-19T02:17:27;10.73;;;7.28;;
75139;SDS011;63714;55.812;37.658;2023-09-19T02:19:53;10.98;;;7.20;;
75139;SDS011;63714;55.812;37.658;2023-09-19T02:22:20;11.75;;;7.03;;
75139;SDS011;63714;55.812;37.658;2023-09-19T02:24:50;11.68;;;7.82;;
75139;SDS011;63714;55.812;37.658;2023-09-19T02:27:16;12.90;;;7.85;;
75139;SDS011;63714;55.812;37.658;2023-09-19T02:29:43;12.50;;;7.45;;
75139;SDS011;63714;55.812;37.658;2023-09-19T02:32:08;10.20;;;6.68;;
75139;SDS011;63714;55.812;37.658;2023-09-19T02:34:37;14.48;;;8.55;;
75139;SDS011;63714;55.812;37.658;2023-09-19T02:37:04;11.45;;;7.70;;
75139;SDS011;63714;55.812;37.658;2023-09-19T02:39:33;10.18;;;6.93;;
75139;SDS011;63714;55.812;37.658;2023-09-19T02:41:59;11.05;;;7.00;;
75139;SDS011;63714;55.812;37.658;2023-09-19T02:44:24;10.55;;;7.35;;
75139;SDS011;63714;55.812;37.658;2023-09-19T02:46:50;15.65;;;7.97;;
75139;SDS011;63714;55.812;37.658;2023-09-19T02:49:16;11.90;;;7.57;;
75139;SDS011;63714;55.812;37.658;2023-09-19T02:51:43;12.20;;;7.97;;
75139;SDS011;63714;55.812;37.658;2023-09-19T02:54:09;11.88;;;7.68;;
75139;SDS011;63714;55.812;37.658;2023-09-19T02:56:35;12.77;;;7.72;;
75139;SDS011;63714;55.812;37.658;2023-09-19T02:59:02;12.10;;;7.78;;
75139;SDS011;63714;55.812;37.658;2023-09-19T03:01:28;11.35;;;7.57;;
75139;SDS011;63714;55.812;37.658;2023-09-19T03:03:54;13.80;;;9.45;;
75139;SDS011;63714;55.812;37.658;2023-09-19T03:06:20;13.35;;;8.32;;
75139;SDS011;63714;55.812;37.658;2023-09-19T03:08:47;14.32;;;9.38;;
75139;SDS011;63714;55.812;37.658;2023-09-19T03:11:14;13.27;;;9.45;;
75139;SDS011;63714;55.812;37.658;2023-09-19T03:13:44;16.92;;;9.57;;
75139;SDS011;63714;55.812;37.658;2023-09-19T03:16:11;12.93;;;9.30;;
75139;SDS011;63714;55.812;37.658;2023-09-19T03:18:36;13.95;;;9.52;;
75139;SDS011;63714;55.812;37.658;2023-09-19T03:21:02;13.85;;;9.38;;
75139;SDS011;63714;55.812;37.658;2023-09-19T03:23:28;12.63;;;8.45;;
75139;SDS011;63714;55.812;37.658;2023-09-19T03:25:54;12.52;;;8.55;;
75139;SDS011;63714;55.812;37.658;2023-09-19T03:28:21;12.35;;;8.45;;
75139;SDS011;63714;55.812;37.658;2023-09-19T03:31:00;13.35;;;8.77;;
75139;SDS011;63714;55.812;37.658;2023-09-19T03:33:27;11.60;;;8.00;;
75139;SDS011;63714;55.812;37.658;2023-09-19T03:35:53;12.68;;;8.55;;
75139;SDS011;63714;55.812;37.658;2023-09-19T03:38:19;12.93;;;8.35;;
75139;SDS011;63714;55.812;37.658;2023-09-19T03:40:47;13.27;;;7.85;;
75139;SDS011;63714;55.812;37.658;2023-09-19T03:43:14;11.65;;;7.65;;
75139;SDS011;63714;55.812;37.658;2023-09-19T03:45:39;12.45;;;7.65;;
75139;SDS011;63714;55.812;37.658;2023-09-19T03:48:08;12.48;;;7.72;;
75139;SDS011;63714;55.812;37.658;2023-09-19T03:50:34;12.15;;;7.68;;
75139;SDS011;63714;55.812;37.658;2023-09-19T03:53:00;12.80;;;8.50;;
75139;SDS011;63714;55.812;37.658;2023-09-19T03:55:25;13.50;;;8.20;;
75139;SDS011;63714;55.812;37.658;2023-09-19T03:57:52;12.73;;;7.32;;
75139;SDS011;63714;55.812;37.658;2023-09-19T04:00:18;10.65;;;7.03;;
75139;SDS011;63714;55.812;37.658;2023-09-19T04:02:46;12.57;;;7.47;;
75139;SDS011;63714;55.812;37.658;2023-09-19T04:05:12;10.00;;;7.43;;
75139;SDS011;63714;55.812;37.658;2023-09-19T04:07:38;11.52;;;8.05;;
75139;SDS011;63714;55.812;37.658;2023-09-19T04:10:04;11.13;;;7.75;;
75139;SDS011;63714;55.812;37.658;2023-09-19T04:12:30;11.77;;;7.43;;
75139;SDS011;63714;55.812;37.658;2023-09-19T04:14:57;14.13;;;7.85;;
75139;SDS011;63714;55.812;37.658;2023-09-19T04:17:23;16.88;;;8.50;;
75139;SDS011;63714;55.812;37.658;2023-09-19T04:19:48;13.20;;;7.13;;
75139;SDS011;63714;55.812;37.658;2023-09-19T04:22:14;12.45;;;8.30;;
75139;SDS011;63714;55.812;37.658;2023-09-19T04:24:40;13.23;;;8.13;;
75139;SDS011;63714;55.812;37.658;2023-09-19T04:27:05;11.57;;;7.60;;
75139;SDS011;63714;55.812;37.658;2023-09-19T04:29:32;11.43;;;8.20;;
75139;SDS011;63714;55.812;37.658;2023-09-19T04:31:58;11.80;;;8.23;;
75139;SDS011;63714;55.812;37.658;2023-09-19T04:34:24;10.88;;;7.68;;
75139;SDS011;63714;55.812;37.658;2023-09-19T04:36:50;12.55;;;7.72;;
75139;SDS011;63714;55.812;37.658;2023-09-19T04:39:15;14.43;;;8.52;;
75139;SDS011;63714;55.812;37.658;2023-09-19T04:41:41;14.57;;;8.30;;
75139;SDS011;63714;55.812;37.658;2023-09-19T04:44:07;11.43;;;8.45;;
75139;SDS011;63714;55.812;37.658;2023-09-19T04:46:33;13.38;;;7.78;;
75139;SDS011;63714;55.812;37.658;2023-09-19T04:48:59;11.15;;;7.75;;
75139;SDS011;63714;55.812;37.658;2023-09-19T04:51:25;13.30;;;8.25;;
75139;SDS011;63714;55.812;37.658;2023-09-19T04:53:54;12.27;;;8.07;;
75139;SDS011;63714;55.812;37.658;2023-09-19T04:56:20;11.05;;;7.78;;
75139;SDS011;63714;55.812;37.658;2023-09-19T04:58:46;10.60;;;7.80;;
75139;SDS011;63714;55.812;37.658;2023-09-19T05:01:11;11.27;;;7.80;;
75139;SDS011;63714;55.812;37.658;2023-09-19T05:03:40;11.73;;;8.25;;
75139;SDS011;63714;55.812;37.658;2023-09-19T05:06:05;11.07;;;7.90;;
75139;SDS011;63714;55.812;37.658;2023-09-19T05:08:31;14.32;;;8.00;;
75139;SDS011;63714;55.812;37.658;2023-09-19T05:10:56;14.43;;;9.45;;
75139;SDS011;63714;55.812;37.658;2023-09-19T05:13:22;16.00;;;8.38;;
75139;SDS011;63714;55.812;37.658;2023-09-19T05:15:52;13.80;;;8.48;;
75139;SDS011;63714;55.812;37.658;2023-09-19T05:18:18;14.07;;;8.23;;
75139;SDS011;63714;55.812;37.658;2023-09-19T05:20:43;11.52;;;8.23;;
75139;SDS011;63714;55.812;37.658;2023-09-19T05:23:09;15.75;;;9.35;;
75139;SDS011;63714;55.812;37.658;2023-09-19T05:28:04;12.77;;;8.70;;
75139;SDS011;63714;55.812;37.658;2023-09-19T05:30:34;13.75;;;8.52;;
75139;SDS011;63714;55.812;37.658;2023-09-19T05:33:04;12.32;;;8.68;;
75139;SDS011;63714;55.812;37.658;2023-09-19T05:35:30;13.48;;;9.23;;
75139;SDS011;63714;55.812;37.658;2023-09-19T05:37:56;15.57;;;9.40;;
75139;SDS011;63714;55.812;37.658;2023-09-19T05:40:23;14.68;;;9.48;;
75139;SDS011;63714;55.812;37.658;2023-09-19T05:42:49;14.40;;;9.70;;
75139;SDS011;63714;55.812;37.658;2023-09-19T05:45:15;15.65;;;10.85;;
75139;SDS011;63714;55.812;37.658;2023-09-19T05:47:50;15.55;;;9.43;;
75139;SDS011;63714;55.812;37.658;2023-09-19T05:50:18;16.77;;;10.45;;
75139;SDS011;63714;55.812;37.658;2023-09-19T05:52:51;16.60;;;10.05;;
75139;SDS011;63714;55.812;37.658;2023-09-19T05:55:17;15.82;;;10.50;;
75139;SDS011;63714;55.812;37.658;2023-09-19T05:57:42;14.02;;;9.80;;
75139;SDS011;63714;55.812;37.658;2023-09-19T06:00:08;15.85;;;10.63;;
75139;SDS011;63714;55.812;37.658;2023-09-19T06:02:36;19.63;;;11.07;;
75139;SDS011;63714;55.812;37.658;2023-09-19T06:05:04;14.45;;;10.45;;
75139;SDS011;63714;55.812;37.658;2023-09-19T06:07:31;14.40;;;9.55;;
75139;SDS011;63714;55.812;37.658;2023-09-19T06:10:04;13.77;;;9.98;;
75139;SDS011;63714;55.812;37.658;2023-09-19T06:12:31;12.30;;;9.10;;
75139;SDS011;63714;55.812;37.658;2023-09-19T06:14:58;16.77;;;9.30;;
75139;SDS011;63714;55.812;37.658;2023-09-19T06:17:24;16.25;;;9.55;;
75139;SDS011;63714;55.812;37.658;2023-09-19T06:19:52;17.17;;;9.13;;
75139;SDS011;63714;55.812;37.658;2023-09-19T06:22:17;11.32;;;8.00;;
75139;SDS011;63714;55.812;37.658;2023-09-19T06:24:44;11.38;;;8.75;;
75139;SDS011;63714;55.812;37.658;2023-09-19T06:27:10;14.60;;;9.18;;
75139;SDS011;63714;55.812;37.658;2023-09-19T06:29:35;12.60;;;8.02;;
75139;SDS011;63714;55.812;37.658;2023-09-19T06:32:06;15.60;;;8.45;;
75139;SDS011;63714;55.812;37.658;2023-09-19T06:34:36;15.43;;;8.68;;
75139;SDS011;63714;55.812;37.658;2023-09-19T06:37:04;13.25;;;7.90;;
75139;SDS011;63714;55.812;37.658;2023-09-19T06:41:56;12.50;;;8.50;;
75139;SDS011;63714;55.812;37.658;2023-09-19T06:44:23;13.23;;;8.35;;
75139;SDS011;63714;55.812;37.658;2023-09-19T06:46:50;17.83;;;8.68;;
75139;SDS011;63714;55.812;37.658;2023-09-19T06:49:17;16.80;;;9.20;;
75139;SDS011;63714;55.812;37.658;2023-09-19T06:51:42;11.27;;;8.50;;
75139;SDS011;63714;55.812;37.658;2023-09-19T06:54:09;10.73;;;8.38;;
75139;SDS011;63714;55.812;37.658;2023-09-19T06:56:35;12.85;;;8.57;;
75139;SDS011;63714;55.812;37.658;2023-09-19T06:59:00;15.15;;;8.95;;
75139;SDS011;63714;55.812;37.658;2023-09-19T07:01:27;11.32;;;8.23;;
75139;SDS011;63714;55.812;37.658;2023-09-19T07:03:53;13.70;;;8.82;;
75139;SDS011;63714;55.812;37.658;2023-09-19T07:06:19;11.75;;;8.65;;
75139;SDS011;63714;55.812;37.658;2023-09-19T07:08:45;15.20;;;9.18;;
75139;SDS011;63714;55.812;37.658;2023-09-19T07:11:10;12.48;;;9.38;;
75139;SDS011;63714;55.812;37.658;2023-09-19T07:13:37;14.60;;;8.90;;
75139;SDS011;63714;55.812;37.658;2023-09-19T07:16:04;15.32;;;10.20;;
75139;SDS011;63714;55.812;37.658;2023-09-19T07:18:30;17.00;;;10.50;;
75139;SDS011;63714;55.812;37.658;2023-09-19T07:20:59;16.17;;;9.88;;
75139;SDS011;63714;55.812;37.658;2023-09-19T07:23:31;15.20;;;9.93;;
75139;SDS011;63714;55.812;37.658;2023-09-19T07:26:00;14.32;;;9.55;;
75139;SDS011;63714;55.812;37.658;2023-09-19T07:28:26;17.48;;;10.63;;
75139;SDS011;63714;55.812;37.658;2023-09-19T07:30:53;22.83;;;9.73;;
75139;SDS011;63714;55.812;37.658;2023-09-19T07:33:19;13.32;;;9.60;;
75139;SDS011;63714;55.812;37.658;2023-09-19T07:35:47;14.02;;;8.65;;
75139;SDS011;63714;55.812;37.658;2023-09-19T07:38:13;17.83;;;9.88;;
75139;SDS011;63714;55.812;37.658;2023-09-19T07:40:39;19.98;;;10.13;;
75139;SDS011;63714;55.812;37.658;2023-09-19T07:43:05;15.02;;;9.90;;
75139;SDS011;63714;55.812;37.658;2023-09-19T07:45:32;18.67;;;10.02;;
75139;SDS011;63714;55.812;37.658;2023-09-19T07:47:58;21.65;;;9.73;;
75139;SDS011;63714;55.812;37.658;2023-09-19T07:50:25;22.17;;;10.38;;
75139;SDS011;63714;55.812;37.658;2023-09-19T07:52:51;14.07;;;10.15;;
75139;SDS011;63714;55.812;37.658;2023-09-19T07:55:18;17.85;;;9.75;;
75139;SDS011;63714;55.812;37.658;2023-09-19T07:57:45;17.42;;;10.50;;
75139;SDS011;63714;55.812;37.658;2023-09-19T08:00:12;18.92;;;9.63;;
75139;SDS011;63714;55.812;37.658;2023-09-19T08:02:39;14.38;;;9.77;;
75139;SDS011;63714;55.812;37.658;2023-09-19T08:05:09;16.15;;;10.13;;
75139;SDS011;63714;55.812;37.658;2023-09-19T08:07:36;15.68;;;10.38;;
75139;SDS011;63714;55.812;37.658;2023-09-19T08:10:05;15.48;;;9.57;;
75139;SDS011;63714;55.812;37.658;2023-09-19T08:12:41;15.18;;;10.38;;
75139;SDS011;63714;55.812;37.658;2023-09-19T08:15:12;19.80;;;10.00;;
75139;SDS011;63714;55.812;37.658;2023-09-19T08:17:41;16.92;;;10.43;;
75139;SDS011;63714;55.812;37.658;2023-09-19T08:20:08;17.70;;;10.75;;
75139;SDS011;63714;55.812;37.658;2023-09-19T08:22:51;14.15;;;9.98;;
75139;SDS011;63714;55.812;37.658;2023-09-19T08:25:22;14.95;;;9.93;;
75139;SDS011;63714;55.812;37.658;2023-09-19T08:27:48;15.60;;;11.25;;
75139;SDS011;63714;55.812;37.658;2023-09-19T08:30:22;17.80;;;11.10;;
75139;SDS011;63714;55.812;37.658;2023-09-19T08:32:49;20.05;;;10.60;;
75139;SDS011;63714;55.812;37.658;2023-09-19T08:35:15;16.55;;;9.77;;
75139;SDS011;63714;55.812;37.658;2023-09-19T08:37:44;18.13;;;10.20;;
75139;SDS011;63714;55.812;37.658;2023-09-19T08:40:13;17.10;;;10.15;;
75139;SDS011;63714;55.812;37.658;2023-09-19T08:42:52;15.75;;;10.82;;
75139;SDS011;63714;55.812;37.658;2023-09-19T08:45:22;15.85;;;10.25;;
75139;SDS011;63714;55.812;37.658;2023-09-19T08:50:30;17.48;;;10.40;;
75139;SDS011;63714;55.812;37.658;2023-09-19T08:52:58;22.33;;;10.90;;
75139;SDS011;63714;55.812;37.658;2023-09-19T08:55:29;17.33;;;11.38;;
75139;SDS011;63714;55.812;37.658;2023-09-19T08:58:03;17.30;;;9.65;;
75139;SDS011;63714;55.812;37.658;2023-09-19T09:00:31;17.17;;;10.23;;
75139;SDS011;63714;55.812;37.658;2023-09-19T09:02:58;19.02;;;10.35;;
75139;SDS011;63714;55.812;37.658;2023-09-19T09:05:26;16.55;;;9.48;;
75139;SDS011;63714;55.812;37.658;2023-09-19T09:07:53;18.42;;;10.10;;
75139;SDS011;63714;55.812;37.658;2023-09-19T09:10:21;17.30;;;10.07;;
75139;SDS011;63714;55.812;37.658;2023-09-19T09:12:48;18.33;;;10.48;;
75139;SDS011;63714;55.812;37.658;2023-09-19T09:15:17;16.52;;;10.75;;
75139;SDS011;63714;55.812;37.658;2023-09-19T09:17:46;13.32;;;9.63;;
75139;SDS011;63714;55.812;37.658;2023-09-19T09:20:13;17.70;;;10.70;;
75139;SDS011;63714;55.812;37.658;2023-09-19T09:22:39;14.63;;;9.82;;
75139;SDS011;63714;55.812;37.658;2023-09-19T09:25:15;16.33;;;10.02;;
75139;SDS011;63714;55.812;37.658;2023-09-19T09:27:43;17.35;;;9.55;;
75139;SDS011;63714;55.812;37.658;2023-09-19T09:30:10;19.27;;;10.60;;
75139;SDS011;63714;55.812;37.658;2023-09-19T09:33:09;16.42;;;9.55;;
75139;SDS011;63714;55.812;37.658;2023-09-19T09:35:36;18.15;;;9.57;;
75139;SDS011;63714;55.812;37.658;2023-09-19T09:38:12;14.77;;;10.45;;
75139;SDS011;63714;55.812;37.658;2023-09-19T09:40:51;17.35;;;10.00;;
75139;SDS011;63714;55.812;37.658;2023-09-19T09:43:29;17.15;;;10.43;;
75139;SDS011;63714;55.812;37.658;2023-09-19T09:46:13;15.23;;;10.05;;
75139;SDS011;63714;55.812;37.658;2023-09-19T09:51:45;19.35;;;10.35;;
75139;SDS011;63714;55.812;37.658;2023-09-19T09:54:23;15.68;;;9.70;;
75139;SDS011;63714;55.812;37.658;2023-09-19T09:56:58;13.40;;;9.82;;
75139;SDS011;63714;55.812;37.658;2023-09-19T09:59:54;14.75;;;9.80;;
75139;SDS011;63714;55.812;37.658;2023-09-19T10:02:30;20.95;;;9.45;;
75139;SDS011;63714;55.812;37.658;2023-09-19T10:05:15;16.80;;;9.70;;
75139;SDS011;63714;55.812;37.658;2023-09-19T10:07:48;15.80;;;9.70;;
75139;SDS011;63714;55.812;37.658;2023-09-19T10:10:34;13.80;;;9.38;;
75139;SDS011;63714;55.812;37.658;2023-09-19T10:13:07;15.40;;;9.32;;
75139;SDS011;63714;55.812;37.658;2023-09-19T10:15:37;19.38;;;11.02;;
75139;SDS011;63714;55.812;37.658;2023-09-19T10:18:06;18.00;;;10.60;;
75139;SDS011;63714;55.812;37.658;2023-09-19T10:20:36;18.60;;;10.77;;
75139;SDS011;63714;55.812;37.658;2023-09-19T10:23:07;17.85;;;10.55;;
75139;SDS011;63714;55.812;37.658;2023-09-19T10:25:39;17.55;;;9.93;;
75139;SDS011;63714;55.812;37.658;2023-09-19T10:28:08;18.67;;;9.32;;
75139;SDS011;63714;55.812;37.658;2023-09-19T10:33:16;18.65;;;9.65;;
75139;SDS011;63714;55.812;37.658;2023-09-19T10:38:10;18.33;;;9.82;;
75139;SDS011;63714;55.812;37.658;2023-09-19T10:40:37;19.95;;;10.55;;
75139;SDS011;63714;55.812;37.658;2023-09-19T10:43:10;15.38;;;10.75;;
75139;SDS011;63714;55.812;37.658;2023-09-19T10:45:37;17.00;;;10.18;;
75139;SDS011;63714;55.812;37.658;2023-09-19T10:48:05;14.13;;;9.55;;
75139;SDS011;63714;55.812;37.658;2023-09-19T10:50:41;19.10;;;9.02;;
75139;SDS011;63714;55.812;37.658;2023-09-19T10:53:11;15.93;;;9.80;;
75139;SDS011;63714;55.812;37.658;2023-09-19T10:55:38;13.48;;;9.27;;
75139;SDS011;63714;55.812;37.658;2023-09-19T10:58:07;20.35;;;9.55;;
75139;SDS011;63714;55.812;37.658;2023-09-19T11:03:37;16.63;;;9.40;;
75139;SDS011;63714;55.812;37.658;2023-09-19T11:06:12;19.75;;;9.48;;
75139;SDS011;63714;55.812;37.658;2023-09-19T11:30:32;15.15;;;10.20;;
75139;SDS011;63714;55.812;37.658;2023-09-19T11:36:19;21.15;;;10.40;;
75139;SDS011;63714;55.812;37.658;2023-09-19T11:43:45;15.23;;;10.30;;
75139;SDS011;63714;55.812;37.658;2023-09-19T11:46:11;15.40;;;9.48;;
75139;SDS011;63714;55.812;37.658;2023-09-19T11:48:41;15.55;;;9.38;;
75139;SDS011;63714;55.812;37.658;2023-09-19T11:51:16;14.20;;;8.82;;
75139;SDS011;63714;55.812;37.658;2023-09-19T11:53:52;18.30;;;10.55;;
75139;SDS011;63714;55.812;37.658;2023-09-19T11:56:20;15.35;;;9.77;;
75139;SDS011;63714;55.812;37.658;2023-09-19T11:58:48;18.13;;;9.95;;
75139;SDS011;63714;55.812;37.658;2023-09-19T12:01:22;12.60;;;9.20;;
75139;SDS011;63714;55.812;37.658;2023-09-19T12:03:54;15.63;;;8.65;;
75139;SDS011;63714;55.812;37.658;2023-09-19T12:06:22;16.65;;;9.63;;
75139;SDS011;63714;55.812;37.658;2023-09-19T12:08:48;17.08;;;9.80;;
75139;SDS011;63714;55.812;37.658;2023-09-19T12:11:16;18.80;;;10.05;;
75139;SDS011;63714;55.812;37.658;2023-09-19T12:13:43;18.95;;;9.50;;
75139;SDS011;63714;55.812;37.658;2023-09-19T12:16:13;20.83;;;9.65;;
75139;SDS011;63714;55.812;37.658;2023-09-19T12:18:40;19.67;;;9.60;;
75139;SDS011;63714;55.812;37.658;2023-09-19T12:21:07;17.80;;;10.02;;
75139;SDS011;63714;55.812;37.658;2023-09-19T12:23:37;21.83;;;10.07;;
75139;SDS011;63714;55.812;37.658;2023-09-19T12:26:06;18.85;;;10.00;;
75139;SDS011;63714;55.812;37.658;2023-09-19T12:28:41;14.52;;;9.15;;
75139;SDS011;63714;55.812;37.658;2023-09-19T12:31:07;14.02;;;9.63;;
75139;SDS011;63714;55.812;37.658;2023-09-19T12:33:33;18.30;;;9.65;;
75139;SDS011;63714;55.812;37.658;2023-09-19T12:36:00;16.70;;;8.90;;
75139;SDS011;63714;55.812;37.658;2023-09-19T12:38:28;14.27;;;8.50;;
75139;SDS011;63714;55.812;37.658;2023-09-19T12:40:57;15.00;;;9.00;;
75139;SDS011;63714;55.812;37.658;2023-09-19T12:43:29;18.33;;;8.98;;
75139;SDS011;63714;55.812;37.658;2023-09-19T12:45:58;13.82;;;9.10;;
75139;SDS011;63714;55.812;37.658;2023-09-19T12:48:25;15.00;;;9.43;;
75139;SDS011;63714;55.812;37.658;2023-09-19T12:50:59;17.85;;;9.00;;
75139;SDS011;63714;55.812;37.658;2023-09-19T12:53:41;18.95;;;9.02;;
75139;SDS011;63714;55.812;37.658;2023-09-19T12:56:10;14.55;;;9.10;;
75139;SDS011;63714;55.812;37.658;2023-09-19T13:01:24;13.23;;;9.43;;
75139;SDS011;63714;55.812;37.658;2023-09-19T13:04:13;14.40;;;8.38;;
75139;SDS011;63714;55.812;37.658;2023-09-19T13:06:52;16.75;;;8.75;;
75139;SDS011;63714;55.812;37.658;2023-09-19T13:09:18;16.73;;;8.45;;
75139;SDS011;63714;55.812;37.658;2023-09-19T13:11:45;13.57;;;8.27;;
75139;SDS011;63714;55.812;37.658;2023-09-19T13:16:54;14.65;;;8.27;;
75139;SDS011;63714;55.812;37.658;2023-09-19T13:19:36;16.95;;;7.85;;
75139;SDS011;63714;55.812;37.658;2023-09-19T13:25:12;15.43;;;8.98;;
75139;SDS011;63714;55.812;37.658;2023-09-19T13:27:48;14.77;;;8.68;;
75139;SDS011;63714;55.812;37.658;2023-09-19T13:30:20;18.30;;;9.55;;
75139;SDS011;63714;55.812;37.658;2023-09-19T13:32:46;14.77;;;8.90;;
75139;SDS011;63714;55.812;37.658;2023-09-19T13:35:15;13.90;;;8.32;;
75139;SDS011;63714;55.812;37.658;2023-09-19T13:37:41;16.20;;;9.07;;
75139;SDS011;63714;55.812;37.658;2023-09-19T13:40:11;15.23;;;8.70;;
75139;SDS011;63714;55.812;37.658;2023-09-19T13:42:38;20.77;;;9.27;;
75139;SDS011;63714;55.812;37.658;2023-09-19T13:45:05;15.65;;;9.40;;
75139;SDS011;63714;55.812;37.658;2023-09-19T13:47:31;16.90;;;9.32;;
75139;SDS011;63714;55.812;37.658;2023-09-19T13:49:58;16.15;;;8.82;;
75139;SDS011;63714;55.812;37.658;2023-09-19T13:52:24;15.63;;;9.80;;
75139;SDS011;63714;55.812;37.658;2023-09-19T13:54:53;16.83;;;10.70;;
75139;SDS011;63714;55.812;37.658;2023-09-19T13:57:21;17.80;;;9.43;;
75139;SDS011;63714;55.812;37.658;2023-09-19T13:59:47;18.17;;;9.60;;
75139;SDS011;63714;55.812;37.658;2023-09-19T14:02:13;17.25;;;9.25;;
75139;SDS011;63714;55.812;37.658;2023-09-19T14:04:39;16.58;;;9.52;;
75139;SDS011;63714;55.812;37.658;2023-09-19T14:07:05;14.45;;;9.30;;
75139;SDS011;63714;55.812;37.658;2023-09-19T14:09:32;14.80;;;9.93;;
75139;SDS011;63714;55.812;37.658;2023-09-19T14:11:59;14.43;;;8.93;;
75139;SDS011;63714;55.812;37.658;2023-09-19T14:14:24;21.30;;;9.90;;
75139;SDS011;63714;55.812;37.658;2023-09-19T14:16:50;20.00;;;10.27;;
75139;SDS011;63714;55.812;37.658;2023-09-19T14:19:17;18.88;;;10.07;;
75139;SDS011;63714;55.812;37.658;2023-09-19T14:21:43;18.73;;;9.85;;
75139;SDS011;63714;55.812;37.658;2023-09-19T14:24:08;16.05;;;10.02;;
75139;SDS011;63714;55.812;37.658;2023-09-19T14:26:38;17.05;;;9.40;;
75139;SDS011;63714;55.812;37.658;2023-09-19T14:29:04;16.92;;;9.50;;
75139;SDS011;63714;55.812;37.658;2023-09-19T14:31:32;13.75;;;9.23;;
75139;SDS011;63714;55.812;37.658;2023-09-19T14:33:58;14.90;;;9.30;;
75139;SDS011;63714;55.812;37.658;2023-09-19T14:36:24;20.88;;;9.98;;
75139;SDS011;63714;55.812;37.658;2023-09-19T14:38:54;17.88;;;9.55;;
75139;SDS011;63714;55.812;37.658;2023-09-19T14:41:22;12.32;;;8.25;;
75139;SDS011;63714;55.812;37.658;2023-09-19T14:43:50;16.88;;;9.88;;
75139;SDS011;63714;55.812;37.658;2023-09-19T14:46:16;20.05;;;9.77;;
75139;SDS011;63714;55.812;37.658;2023-09-19T14:48:43;16.45;;;8.90;;
75139;SDS011;63714;55.812;37.658;2023-09-19T14:51:09;16.50;;;9.00;;
75139;SDS011;63714;55.812;37.658;2023-09-19T14:53:37;14.77;;;9.45;;
75139;SDS011;63714;55.812;37.658;2023-09-19T14:56:03;16.88;;;10.13;;
75139;SDS011;63714;55.812;37.658;2023-09-19T14:58:33;17.60;;;9.20;;
75139;SDS011;63714;55.812;37.658;2023-09-19T15:01:17;14.35;;;8.90;;
75139;SDS011;63714;55.812;37.658;2023-09-19T15:03:43;15.77;;;8.38;;
75139;SDS011;63714;55.812;37.658;2023-09-19T15:06:09;15.68;;;9.05;;
75139;SDS011;63714;55.812;37.658;2023-09-19T15:08:39;13.85;;;8.85;;
75139;SDS011;63714;55.812;37.658;2023-09-19T15:11:10;17.60;;;8.93;;
75139;SDS011;63714;55.812;37.658;2023-09-19T15:13:37;13.27;;;8.15;;
75139;SDS011;63714;55.812;37.658;2023-09-19T15:16:04;15.43;;;8.02;;
75139;SDS011;63714;55.812;37.658;2023-09-19T15:18:34;15.32;;;8.65;;
75139;SDS011;63714;55.812;37.658;2023-09-19T15:21:05;13.20;;;8.30;;
75139;SDS011;63714;55.812;37.658;2023-09-19T15:23:35;12.82;;;8.18;;
75139;SDS011;63714;55.812;37.658;2023-09-19T15:26:04;12.95;;;8.95;;
75139;SDS011;63714;55.812;37.658;2023-09-19T15:28:32;13.45;;;8.05;;
75139;SDS011;63714;55.812;37.658;2023-09-19T15:31:08;16.02;;;8.60;;
75139;SDS011;63714;55.812;37.658;2023-09-19T15:33:38;13.25;;;8.90;;
75139;SDS011;63714;55.812;37.658;2023-09-19T15:36:08;14.50;;;8.85;;
75139;SDS011;63714;55.812;37.658;2023-09-19T15:38:55;16.33;;;9.18;;
75139;SDS011;63714;55.812;37.658;2023-09-19T15:41:35;17.17;;;9.57;;
75139;SDS011;63714;55.812;37.658;2023-09-19T15:44:02;17.65;;;10.05;;